createdAt,value
2018-08-30T00:00:36.361Z,1003.01
2018-08-30T00:01:36.349Z,1003.01
2018-08-30T00:02:36.346Z,1002.98
2018-08-30T00:03:36.324Z,1002.99
2018-08-30T00:04:36.349Z,1002.99
2018-08-30T00:05:36.305Z,1002.97
2018-08-30T00:06:36.297Z,1003.01
2018-08-30T00:07:36.285Z,1002.97
2018-08-30T00:08:36.273Z,1002.97
2018-08-30T00:09:36.285Z,1002.98
2018-08-30T00:10:36.247Z,1002.93
2018-08-30T00:11:36.236Z,1002.96
2018-08-30T00:12:36.229Z,1003.02
2018-08-30T00:13:36.245Z,1003.04
2018-08-30T00:14:36.231Z,1003.05
2018-08-30T00:15:36.185Z,1003.12
2018-08-30T00:16:36.178Z,1003.13
2018-08-30T00:17:36.172Z,1003.15
2018-08-30T00:18:36.150Z,1003.16
2018-08-30T00:19:36.174Z,1003.19
2018-08-30T00:20:36.127Z,1003.25
2018-08-30T00:21:36.122Z,1003.29
2018-08-30T00:22:36.107Z,1003.30
2018-08-30T00:23:36.097Z,1003.32
2018-08-30T00:24:36.109Z,1003.34
2018-08-30T00:25:36.074Z,1003.32
2018-08-30T00:26:36.068Z,1003.36
2018-08-30T00:27:36.046Z,1003.41
2018-08-30T00:28:36.044Z,1003.44
2018-08-30T00:29:36.056Z,1003.45
2018-08-30T00:30:36.011Z,1003.45
2018-08-30T00:31:36.003Z,1003.46
2018-08-30T00:32:35.989Z,1003.49
2018-08-30T00:33:35.982Z,1003.50
2018-08-30T00:34:35.997Z,1003.52
2018-08-30T00:35:35.952Z,1003.51
2018-08-30T00:36:35.949Z,1003.46
2018-08-30T00:37:35.932Z,1003.60
2018-08-30T00:38:35.923Z,1003.61
2018-08-30T00:39:35.960Z,1003.63
2018-08-30T00:40:35.900Z,1003.60
2018-08-30T00:41:35.892Z,1003.67
2018-08-30T00:42:35.874Z,1003.69
2018-08-30T00:43:35.860Z,1003.71
2018-08-30T00:44:35.876Z,1003.68
2018-08-30T00:45:35.834Z,1003.70
2018-08-30T00:46:35.825Z,1003.75
2018-08-30T00:47:35.811Z,1003.75
2018-08-30T00:48:35.800Z,1003.78
2018-08-30T00:49:35.821Z,1003.78
2018-08-30T00:50:35.779Z,1003.83
2018-08-30T00:51:35.766Z,1003.86
2018-08-30T00:52:35.756Z,1003.85
2018-08-30T00:53:35.746Z,1003.93
2018-08-30T00:54:35.755Z,1003.91
2018-08-30T00:55:35.717Z,1003.92
2018-08-30T00:56:35.714Z,1003.92
2018-08-30T00:57:35.700Z,1003.91
2018-08-30T00:58:35.683Z,1003.94
2018-08-30T00:59:35.699Z,1004.00
2018-08-30T01:00:35.667Z,1004.04
2018-08-30T01:01:35.650Z,1004.07
2018-08-30T01:02:35.635Z,1004.08
2018-08-30T01:03:35.625Z,1004.07
2018-08-30T01:04:35.636Z,1004.05
2018-08-30T01:05:35.600Z,1004.13
2018-08-30T01:06:35.597Z,1004.18
2018-08-30T01:07:35.577Z,1004.22
2018-08-30T01:08:35.573Z,1004.23
2018-08-30T01:09:35.578Z,1004.27
2018-08-30T01:10:35.548Z,1004.22
2018-08-30T01:11:35.533Z,1004.28
2018-08-30T01:12:35.523Z,1004.25
2018-08-30T01:13:35.515Z,1004.30
2018-08-30T01:14:35.527Z,1004.31
2018-08-30T01:15:35.488Z,1004.36
2018-08-30T01:16:35.477Z,1004.36
2018-08-30T01:17:35.467Z,1004.38
2018-08-30T01:18:35.447Z,1004.40
2018-08-30T01:19:35.463Z,1004.42
2018-08-30T01:20:35.428Z,1004.43
2018-08-30T01:21:35.412Z,1004.39
2018-08-30T01:22:35.404Z,1004.39
2018-08-30T01:23:35.387Z,1004.46
2018-08-30T01:24:35.400Z,1004.46
2018-08-30T01:25:35.373Z,1004.40
2018-08-30T01:26:35.349Z,1004.53
2018-08-30T01:27:35.348Z,1004.49
2018-08-30T01:28:35.328Z,1004.49
2018-08-30T01:29:35.342Z,1004.59
2018-08-30T01:30:35.312Z,1004.55
2018-08-30T01:31:35.302Z,1004.59
2018-08-30T01:32:35.275Z,1004.63
2018-08-30T01:33:35.278Z,1004.64
2018-08-30T01:34:35.282Z,1004.57
2018-08-30T01:35:35.245Z,1004.57
2018-08-30T01:36:35.242Z,1004.64
2018-08-30T01:37:35.231Z,1004.66
2018-08-30T01:38:35.209Z,1004.63
2018-08-30T01:39:35.230Z,1004.67
2018-08-30T01:40:35.185Z,1004.64
2018-08-30T01:41:35.180Z,1004.71
2018-08-30T01:42:35.167Z,1004.67
2018-08-30T01:43:35.157Z,1004.63
2018-08-30T01:44:35.164Z,1004.65
2018-08-30T01:45:35.126Z,1004.65
2018-08-30T01:46:35.124Z,1004.64
2018-08-30T01:47:35.103Z,1004.62
2018-08-30T01:48:35.100Z,1004.67
2018-08-30T01:49:35.107Z,1004.68
2018-08-30T01:50:35.073Z,1004.70
2018-08-30T01:51:35.059Z,1004.67
2018-08-30T01:52:35.049Z,1004.69
2018-08-30T01:53:35.031Z,1004.70
2018-08-30T01:54:35.048Z,1004.69
2018-08-30T01:55:35.013Z,1004.74
2018-08-30T01:56:34.999Z,1004.76
2018-08-30T01:57:34.988Z,1004.73
2018-08-30T01:58:34.979Z,1004.76
2018-08-30T01:59:34.993Z,1004.75
2018-08-30T02:00:34.949Z,1004.76
2018-08-30T02:01:34.946Z,1004.77
2018-08-30T02:02:34.926Z,1004.76
2018-08-30T02:03:34.922Z,1004.81
2018-08-30T02:04:34.925Z,1004.79
2018-08-30T02:05:34.895Z,1004.75
2018-08-30T02:06:34.880Z,1004.74
2018-08-30T02:07:34.872Z,1004.76
2018-08-30T02:08:34.856Z,1004.75
2018-08-30T02:09:34.871Z,1004.72
2018-08-30T02:10:34.839Z,1004.73
2018-08-30T02:11:34.823Z,1004.71
2018-08-30T02:12:34.814Z,1004.69
2018-08-30T02:13:34.804Z,1004.67
2018-08-30T02:14:34.806Z,1004.68
2018-08-30T02:15:34.773Z,1004.73
2018-08-30T02:16:34.765Z,1004.72
2018-08-30T02:17:34.752Z,1004.75
2018-08-30T02:18:34.740Z,1004.70
2018-08-30T02:19:34.749Z,1004.72
2018-08-30T02:20:34.716Z,1004.74
2018-08-30T02:21:34.699Z,1004.73
2018-08-30T02:22:34.695Z,1004.66
2018-08-30T02:23:34.676Z,1004.70
2018-08-30T02:24:34.697Z,1004.68
2018-08-30T02:25:34.653Z,1004.60
2018-08-30T02:26:34.638Z,1004.66
2018-08-30T02:27:34.636Z,1004.68
2018-08-30T02:28:34.623Z,1004.65
2018-08-30T02:29:34.627Z,1004.65
2018-08-30T02:30:34.602Z,1004.73
2018-08-30T02:31:34.581Z,1004.68
2018-08-30T02:32:34.576Z,1004.71
2018-08-30T02:33:34.557Z,1004.73
2018-08-30T02:34:34.578Z,1004.76
2018-08-30T02:35:34.533Z,1004.79
2018-08-30T02:36:34.530Z,1004.80
2018-08-30T02:37:34.513Z,1004.81
2018-08-30T02:38:34.504Z,1004.84
2018-08-30T02:39:34.514Z,1004.85
2018-08-30T02:40:34.480Z,1004.81
2018-08-30T02:41:34.462Z,1004.88
2018-08-30T02:42:34.459Z,1004.91
2018-08-30T02:43:34.445Z,1004.92
2018-08-30T02:44:34.459Z,1004.89
2018-08-30T02:45:34.425Z,1004.91
2018-08-30T02:46:34.408Z,1004.86
2018-08-30T02:47:34.390Z,1004.85
2018-08-30T02:48:34.387Z,1004.90
2018-08-30T02:49:34.402Z,1004.91
2018-08-30T02:50:34.361Z,1004.94
2018-08-30T02:51:34.346Z,1004.94
2018-08-30T02:52:34.337Z,1004.90
2018-08-30T02:53:34.319Z,1004.89
2018-08-30T02:54:34.341Z,1004.92
2018-08-30T02:55:34.295Z,1004.91
2018-08-30T02:56:34.292Z,1004.91
2018-08-30T02:57:34.281Z,1004.93
2018-08-30T02:58:34.259Z,1004.94
2018-08-30T02:59:34.273Z,1004.99
2018-08-30T03:00:34.236Z,1004.98
2018-08-30T03:01:34.224Z,1004.99
2018-08-30T03:02:34.215Z,1005.01
2018-08-30T03:03:34.207Z,1004.99
2018-08-30T03:04:34.215Z,1004.95
2018-08-30T03:05:34.186Z,1005.00
2018-08-30T03:06:34.169Z,1004.99
2018-08-30T03:07:34.152Z,1005.00
2018-08-30T03:08:34.150Z,1005.01
2018-08-30T03:09:34.160Z,1005.01
2018-08-30T03:10:34.117Z,1005.04
2018-08-30T03:11:34.111Z,1005.04
2018-08-30T03:12:34.102Z,1005.06
2018-08-30T03:13:34.088Z,1005.07
2018-08-30T03:14:34.103Z,1005.08
2018-08-30T03:15:34.064Z,1005.04
2018-08-30T03:16:34.054Z,1005.08
2018-08-30T03:17:34.044Z,1005.08
2018-08-30T03:18:34.044Z,1005.07
2018-08-30T03:19:34.040Z,1005.11
2018-08-30T03:20:34.004Z,1005.07
2018-08-30T03:21:33.997Z,1005.11
2018-08-30T03:22:33.975Z,1005.12
2018-08-30T03:23:33.973Z,1005.10
2018-08-30T03:24:33.977Z,1005.12
2018-08-30T03:25:33.945Z,1005.13
2018-08-30T03:26:33.937Z,1005.15
2018-08-30T03:27:33.923Z,1005.15
2018-08-30T03:28:33.906Z,1005.18
2018-08-30T03:29:33.924Z,1005.20
2018-08-30T03:30:33.884Z,1005.19
2018-08-30T03:31:33.878Z,1005.18
2018-08-30T03:32:33.865Z,1005.19
2018-08-30T03:33:33.843Z,1005.21
2018-08-30T03:34:33.864Z,1005.24
2018-08-30T03:35:33.822Z,1005.23
2018-08-30T03:36:33.818Z,1005.30
2018-08-30T03:37:33.797Z,1005.23
2018-08-30T03:38:33.794Z,1005.25
2018-08-30T03:39:33.781Z,1005.26
2018-08-30T03:40:33.795Z,1005.22
2018-08-30T03:41:33.755Z,1005.23
2018-08-30T03:42:33.746Z,1005.30
2018-08-30T03:43:33.735Z,1005.34
2018-08-30T03:44:33.714Z,1005.32
2018-08-30T03:45:33.702Z,1005.32
2018-08-30T03:46:33.732Z,1005.30
2018-08-30T03:47:33.685Z,1005.33
2018-08-30T03:48:33.675Z,1005.34
2018-08-30T03:49:33.663Z,1005.37
2018-08-30T03:50:33.650Z,1005.39
2018-08-30T03:51:33.636Z,1005.35
2018-08-30T03:52:33.652Z,1005.34
2018-08-30T03:53:33.616Z,1005.36
2018-08-30T03:54:33.595Z,1005.33
2018-08-30T03:55:33.592Z,1005.31
2018-08-30T03:56:33.571Z,1005.37
2018-08-30T03:57:33.596Z,1005.39
2018-08-30T03:58:33.551Z,1005.37
2018-08-30T03:59:33.542Z,1005.39
2018-08-30T04:00:33.529Z,1005.36
2018-08-30T04:01:33.522Z,1005.39
2018-08-30T04:02:33.502Z,1005.41
2018-08-30T04:03:33.527Z,1005.40
2018-08-30T04:04:33.478Z,1005.46
2018-08-30T04:05:33.468Z,1005.43
2018-08-30T04:06:33.458Z,1005.38
2018-08-30T04:07:33.452Z,1005.46
2018-08-30T04:08:33.433Z,1005.42
2018-08-30T04:09:33.450Z,1005.49
2018-08-30T04:10:33.417Z,1005.45
2018-08-30T04:11:33.396Z,1005.42
2018-08-30T04:12:33.394Z,1005.41
2018-08-30T04:13:33.428Z,1005.42
2018-08-30T04:14:33.372Z,1005.41
2018-08-30T04:15:33.375Z,1005.45
2018-08-30T04:16:33.342Z,1005.48
2018-08-30T04:17:33.332Z,1005.45
2018-08-30T04:18:33.316Z,1005.45
2018-08-30T04:19:33.306Z,1005.48
2018-08-30T04:20:33.325Z,1005.44
2018-08-30T04:21:33.288Z,1005.42
2018-08-30T04:22:33.266Z,1005.47
2018-08-30T04:23:33.264Z,1005.49
2018-08-30T04:24:33.243Z,1005.44
2018-08-30T04:25:33.233Z,1005.49
2018-08-30T04:26:33.257Z,1005.43
2018-08-30T04:27:33.211Z,1005.48
2018-08-30T04:28:33.202Z,1005.44
2018-08-30T04:29:33.185Z,1005.44
2018-08-30T04:30:33.181Z,1005.43
2018-08-30T04:31:33.238Z,1005.49
2018-08-30T04:32:33.190Z,1005.51
2018-08-30T04:33:33.146Z,1005.49
2018-08-30T04:34:33.131Z,1005.45
2018-08-30T04:35:33.124Z,1005.46
2018-08-30T04:36:33.103Z,1005.44
2018-08-30T04:37:33.091Z,1005.47
2018-08-30T04:38:33.121Z,1005.49
2018-08-30T04:39:33.073Z,1005.48
2018-08-30T04:40:33.059Z,1005.58
2018-08-30T04:41:33.052Z,1005.54
2018-08-30T04:42:33.073Z,1005.49
2018-08-30T04:43:33.030Z,1005.53
2018-08-30T04:44:33.052Z,1005.50
2018-08-30T04:45:33.007Z,1005.57
2018-08-30T04:46:32.985Z,1005.60
2018-08-30T04:47:32.984Z,1005.56
2018-08-30T04:48:32.961Z,1005.55
2018-08-30T04:49:32.950Z,1005.60
2018-08-30T04:50:33.014Z,1005.53
2018-08-30T04:51:32.927Z,1005.57
2018-08-30T04:52:32.919Z,1005.68
2018-08-30T04:53:32.905Z,1005.63
2018-08-30T04:54:32.898Z,1005.65
2018-08-30T04:55:32.890Z,1005.70
2018-08-30T04:56:32.901Z,1005.71
2018-08-30T04:57:32.859Z,1005.69
2018-08-30T04:58:32.851Z,1005.68
2018-08-30T04:59:32.842Z,1005.72
2018-08-30T05:00:32.821Z,1005.75
2018-08-30T05:01:32.840Z,1005.69
2018-08-30T05:02:32.830Z,1005.76
2018-08-30T05:03:32.788Z,1005.74
2018-08-30T05:04:32.785Z,1005.79
2018-08-30T05:05:32.773Z,1005.80
2018-08-30T05:06:32.754Z,1005.83
2018-08-30T05:07:32.745Z,1005.84
2018-08-30T05:08:32.761Z,1005.83
2018-08-30T05:09:32.723Z,1005.88
2018-08-30T05:10:33.747Z,1005.92
2018-08-30T05:11:32.701Z,1005.88
2018-08-30T05:12:32.686Z,1005.87
2018-08-30T05:13:32.672Z,1005.91
2018-08-30T05:14:32.700Z,1005.91
2018-08-30T05:15:32.655Z,1005.92
2018-08-30T05:16:32.686Z,1005.91
2018-08-30T05:17:32.635Z,1005.92
2018-08-30T05:18:32.617Z,1005.91
2018-08-30T05:19:23.964Z,1005.98
2018-08-30T05:20:23.949Z,1005.93
2018-08-30T05:21:23.878Z,1005.95
2018-08-30T05:22:23.838Z,1005.97
2018-08-30T05:37:14.732Z,1006.01
2018-08-30T05:38:14.693Z,1006.04
2018-08-30T05:39:14.659Z,1006.06
2018-08-30T05:40:14.621Z,1006.14
2018-08-30T05:41:14.593Z,1006.14
2018-08-30T05:42:15.216Z,1006.11
2018-08-30T05:43:14.824Z,1006.18
2018-08-30T05:44:14.468Z,1006.14
2018-08-30T05:45:14.423Z,1006.17
2018-08-30T05:46:14.380Z,1006.15
2018-08-30T05:47:14.349Z,1006.18
2018-08-30T05:48:14.330Z,1006.20
2018-08-30T05:49:14.259Z,1006.20
2018-08-30T05:50:14.213Z,1006.18
2018-08-30T05:51:14.165Z,1006.26
2018-08-30T05:52:14.126Z,1006.29
2018-08-30T05:53:14.075Z,1006.30
2018-08-30T05:54:14.066Z,1006.29
2018-08-30T05:55:13.991Z,1006.30
2018-08-30T05:56:13.940Z,1006.27
2018-08-30T05:57:13.900Z,1006.33
2018-08-30T05:58:13.853Z,1006.29
2018-08-30T05:59:13.813Z,1006.29
2018-08-30T06:00:13.789Z,1006.32
2018-08-30T06:01:13.712Z,1006.36
2018-08-30T06:02:13.674Z,1006.40
2018-08-30T06:03:13.623Z,1006.41
2018-08-30T06:04:13.576Z,1006.44
2018-08-30T06:05:13.559Z,1006.42
2018-08-30T06:06:13.495Z,1006.44
2018-08-30T06:07:13.489Z,1006.37
2018-08-30T06:08:13.464Z,1006.45
2018-08-30T06:15:38.899Z,1006.46
2018-08-30T06:16:38.899Z,1006.54
2018-08-30T06:17:38.860Z,1006.53
2018-08-30T06:18:38.847Z,1006.52
2018-08-30T06:19:38.826Z,1006.54
2018-08-30T06:20:38.815Z,1006.52
2018-08-30T06:21:38.819Z,1006.54
2018-08-30T06:22:38.759Z,1006.59
2018-08-30T06:23:38.737Z,1006.62
2018-08-30T06:24:38.717Z,1006.59
2018-08-30T06:25:38.699Z,1006.65
2018-08-30T06:26:38.692Z,1006.59
2018-08-30T06:27:38.678Z,1006.64
2018-08-30T06:28:38.625Z,1006.66
2018-08-30T06:29:38.599Z,1006.60
2018-08-30T06:30:38.567Z,1006.68
2018-08-30T06:31:38.546Z,1006.61
2018-08-30T06:32:38.545Z,1006.60
2018-08-30T06:33:38.517Z,1006.63
2018-08-30T06:34:38.518Z,1006.58
2018-08-30T06:35:38.439Z,1006.67
2018-08-30T06:36:38.402Z,1006.63
2018-08-30T06:37:38.387Z,1006.64
2018-08-30T06:38:38.419Z,1006.64
2018-08-30T06:39:38.333Z,1006.67
2018-08-30T06:40:38.300Z,1006.66
2018-08-30T06:41:38.275Z,1006.69
2018-08-30T06:42:38.244Z,1006.71
2018-08-30T06:43:38.248Z,1006.72
2018-08-30T06:44:38.183Z,1006.72
2018-08-30T06:45:38.152Z,1006.74
2018-08-30T06:46:38.122Z,1006.73
2018-08-30T06:47:38.095Z,1006.74
2018-08-30T07:00:42.234Z,1006.94
2018-08-30T07:01:42.217Z,1006.87
2018-08-30T07:02:42.147Z,1006.90
2018-08-30T07:03:42.107Z,1006.88
2018-08-30T07:04:42.074Z,1006.94
2018-08-30T07:05:42.038Z,1006.95
2018-08-30T07:06:41.992Z,1006.98
2018-08-30T07:07:41.981Z,1006.95
2018-08-30T07:08:41.906Z,1006.96
2018-08-30T07:09:41.875Z,1007.00
2018-08-30T07:10:41.826Z,1007.03
2018-08-30T07:11:41.795Z,1007.01
2018-08-30T07:12:41.745Z,1007.06
2018-08-30T07:13:41.723Z,1007.06
2018-08-30T07:14:41.757Z,1007.04
2018-08-30T07:15:41.614Z,1007.10
2018-08-30T07:16:41.572Z,1007.07
2018-08-30T07:17:41.515Z,1007.04
2018-08-30T07:18:41.548Z,1007.08
2018-08-30T07:19:41.418Z,1007.07
2018-08-30T07:20:41.372Z,1007.08
2018-08-30T07:21:41.971Z,1007.13
2018-08-30T07:22:41.263Z,1007.07
2018-08-30T07:23:41.241Z,1007.06
2018-08-30T07:24:41.188Z,1007.14
2018-08-30T07:25:41.138Z,1007.15
2018-08-30T07:26:41.072Z,1007.13
2018-08-30T07:27:41.016Z,1007.20
2018-08-30T07:28:40.989Z,1007.21
2018-08-30T07:29:40.940Z,1007.14
2018-08-30T07:30:40.859Z,1007.17
2018-08-30T07:31:40.801Z,1007.20
2018-08-30T07:32:40.748Z,1007.16
2018-08-30T07:33:40.708Z,1007.15
2018-08-30T07:34:40.734Z,1007.27
2018-08-30T07:35:40.626Z,1007.20
2018-08-30T07:37:24.838Z,1007.22
2018-08-30T07:38:24.831Z,1007.26
2018-08-30T07:39:24.819Z,1007.33
2018-08-30T07:40:24.805Z,1007.30
2018-08-30T07:41:24.822Z,1007.31
2018-08-30T07:42:24.777Z,1007.34
2018-08-30T07:43:24.773Z,1007.32
2018-08-30T07:44:24.969Z,1007.29
2018-08-30T07:45:24.744Z,1007.28
2018-08-30T07:46:24.734Z,1007.29
2018-08-30T07:47:24.799Z,1007.35
2018-08-30T07:48:24.740Z,1007.32
2018-08-30T07:49:24.723Z,1007.36
2018-08-30T07:50:24.718Z,1007.36
2018-08-30T07:51:24.704Z,1007.37
2018-08-30T07:52:24.684Z,1007.41
2018-08-30T07:53:24.718Z,1007.45
2018-08-30T07:54:24.710Z,1007.54
2018-08-30T07:55:24.657Z,1007.69
2018-08-30T07:56:24.647Z,1007.57
2018-08-30T07:57:24.683Z,1007.52
2018-08-30T07:58:24.687Z,1007.56
2018-08-30T07:59:24.710Z,1007.57
2018-08-30T08:00:24.589Z,1007.62
2018-08-30T08:01:24.579Z,1007.66
2018-08-30T08:02:24.556Z,1007.81
2018-08-30T08:03:24.565Z,1007.57
2018-08-30T08:04:24.559Z,1007.68
2018-08-30T08:05:24.573Z,1007.84
2018-08-30T08:06:24.511Z,1007.76
2018-08-30T08:07:24.520Z,1007.85
2018-08-30T08:08:24.501Z,1007.70
2018-08-30T08:09:24.506Z,1007.89
2018-08-30T08:10:24.500Z,1007.89
2018-08-30T08:11:24.515Z,1007.90
2018-08-30T08:12:24.435Z,1007.75
2018-08-30T08:13:24.483Z,1007.94
2018-08-30T08:14:24.430Z,1008.06
2018-08-30T08:15:24.442Z,1007.74
2018-08-30T08:16:24.389Z,1007.73
2018-08-30T08:17:24.446Z,1007.68
2018-08-30T08:18:24.387Z,1007.72
2018-08-30T08:19:24.439Z,1007.75
2018-08-30T08:20:24.464Z,1007.71
2018-08-30T08:21:24.419Z,1007.84
2018-08-30T08:22:24.366Z,1007.78
2018-08-30T08:23:24.369Z,1007.76
2018-08-30T08:24:24.317Z,1008.01
2018-08-30T08:25:24.360Z,1008.05
2018-08-30T08:26:24.288Z,1008.06
2018-08-30T08:27:24.282Z,1008.04
2018-08-30T08:28:24.244Z,1008.07
2018-08-30T08:29:24.268Z,1007.99
2018-08-30T08:30:24.224Z,1007.92
2018-08-30T08:31:24.295Z,1007.94
2018-08-30T08:32:24.196Z,1007.81
2018-08-30T08:33:24.194Z,1007.98
2018-08-30T08:34:24.180Z,1007.95
2018-08-30T08:35:24.200Z,1008.09
2018-08-30T08:36:24.170Z,1008.05
2018-08-30T08:37:24.149Z,1008.01
2018-08-30T08:38:24.132Z,1007.97
2018-08-30T08:39:24.118Z,1007.86
2018-08-30T08:40:24.112Z,1007.92
2018-08-30T08:41:24.125Z,1008.03
2018-08-30T08:42:24.081Z,1007.86
2018-08-30T08:43:24.069Z,1007.92
2018-08-30T08:44:24.069Z,1007.94
2018-08-30T08:45:24.053Z,1007.84
2018-08-30T08:46:24.077Z,1007.86
2018-08-30T08:47:24.031Z,1007.87
2018-08-30T08:48:24.016Z,1007.84
2018-08-30T08:49:24.000Z,1007.85
2018-08-30T08:50:23.993Z,1007.84
2018-08-30T08:51:23.987Z,1007.88
2018-08-30T08:52:24.039Z,1007.91
2018-08-30T08:53:23.994Z,1008.15
2018-08-30T08:54:23.950Z,1007.89
2018-08-30T08:55:23.939Z,1007.91
2018-08-30T08:56:23.924Z,1007.92
2018-08-30T08:57:23.910Z,1008.27
2018-08-30T08:58:23.940Z,1007.97
2018-08-30T08:59:23.897Z,1008.02
2018-08-30T09:00:23.877Z,1008.23
2018-08-30T09:01:23.908Z,1008.03
2018-08-30T09:02:23.859Z,1007.95
2018-08-30T09:03:23.853Z,1007.93
2018-08-30T09:04:23.871Z,1007.94
2018-08-30T09:05:23.830Z,1008.00
2018-08-30T09:06:23.810Z,1008.02
2018-08-30T09:07:23.804Z,1008.10
2018-08-30T09:08:23.795Z,1007.98
2018-08-30T09:09:23.776Z,1008.33
2018-08-30T09:10:23.799Z,1008.38
2018-08-30T09:11:23.754Z,1008.08
2018-08-30T09:12:23.749Z,1008.38
2018-08-30T09:13:23.731Z,1008.46
2018-08-30T09:14:23.781Z,1008.40
2018-08-30T09:15:23.708Z,1008.14
2018-08-30T09:16:23.760Z,1008.05
2018-08-30T09:17:23.684Z,1008.05
2018-08-30T09:18:23.732Z,1008.38
2018-08-30T09:19:23.667Z,1008.09
2018-08-30T09:20:23.659Z,1008.40
2018-08-30T09:21:23.639Z,1008.11
2018-08-30T09:22:23.721Z,1008.12
2018-08-30T09:23:23.622Z,1008.03
2018-08-30T09:24:23.624Z,1008.06
2018-08-30T09:25:23.604Z,1008.12
2018-08-30T09:26:23.589Z,1008.41
2018-08-30T09:27:23.578Z,1008.40
2018-08-30T09:28:23.597Z,1008.46
2018-08-30T09:29:23.556Z,1008.45
2018-08-30T09:30:23.542Z,1008.42
2018-08-30T09:31:23.535Z,1008.42
2018-08-30T09:32:23.516Z,1008.50
2018-08-30T09:33:23.514Z,1008.18
2018-08-30T09:34:23.518Z,1008.42
2018-08-30T09:35:23.492Z,1008.51
2018-08-30T09:36:23.474Z,1008.52
2018-08-30T09:37:23.469Z,1008.26
2018-08-30T09:38:23.448Z,1008.53
2018-08-30T09:39:23.476Z,1008.12
2018-08-30T09:40:23.429Z,1008.17
2018-08-30T09:41:23.420Z,1008.10
2018-08-30T09:42:23.407Z,1008.11
2018-08-30T09:43:23.401Z,1008.48
2018-08-30T09:44:23.381Z,1008.50
2018-08-30T09:45:23.400Z,1008.53
2018-08-30T09:46:23.363Z,1008.15
2018-08-30T09:47:23.351Z,1008.15
2018-08-30T09:48:23.339Z,1008.10
2018-08-30T09:49:23.350Z,1008.43
2018-08-30T09:50:23.363Z,1008.18
2018-08-30T09:51:23.308Z,1008.18
2018-08-30T09:52:23.294Z,1008.09
2018-08-30T09:53:23.277Z,1008.10
2018-08-30T09:54:23.287Z,1008.10
2018-08-30T09:55:23.278Z,1008.45
2018-08-30T09:56:23.328Z,1008.46
2018-08-30T09:57:23.704Z,1008.42
2018-08-30T09:58:23.229Z,1008.43
2018-08-30T09:59:23.211Z,1008.46
2018-08-30T10:00:23.207Z,1008.50
2018-08-30T10:01:23.191Z,1008.52
2018-08-30T10:02:23.215Z,1008.25
2018-08-30T10:03:23.174Z,1008.50
2018-08-30T10:04:23.156Z,1008.56
2018-08-30T10:05:23.154Z,1008.27
2018-08-30T10:06:23.132Z,1008.63
2018-08-30T10:07:23.129Z,1008.42
2018-08-30T10:08:23.149Z,1008.32
2018-08-30T10:09:23.104Z,1008.26
2018-08-30T10:10:23.091Z,1008.26
2018-08-30T10:11:23.084Z,1008.65
2018-08-30T10:12:23.069Z,1008.49
2018-08-30T10:13:23.060Z,1008.63
2018-08-30T10:14:23.080Z,1008.22
2018-08-30T10:15:23.041Z,1008.23
2018-08-30T10:16:23.021Z,1008.17
2018-08-30T10:17:23.019Z,1008.56
2018-08-30T10:18:22.999Z,1008.57
2018-08-30T10:19:22.989Z,1008.52
2018-08-30T10:20:23.019Z,1008.53
2018-08-30T10:21:23.008Z,1008.64
2018-08-30T10:22:22.965Z,1008.31
2018-08-30T10:23:22.949Z,1008.64
2018-08-30T10:24:22.940Z,1008.21
2018-08-30T10:25:22.964Z,1008.24
2018-08-30T10:26:22.966Z,1008.26
2018-08-30T10:27:22.903Z,1008.23
2018-08-30T10:28:22.895Z,1008.20
2018-08-30T10:29:22.917Z,1008.17
2018-08-30T10:30:22.883Z,1008.21
2018-08-30T10:31:22.878Z,1008.18
2018-08-30T10:32:22.879Z,1008.21
2018-08-30T10:33:22.840Z,1008.20
2018-08-30T10:34:22.826Z,1008.21
2018-08-30T10:35:22.820Z,1008.22
2018-08-30T10:36:22.801Z,1008.29
2018-08-30T10:37:22.799Z,1008.23
2018-08-30T10:38:22.811Z,1008.21
2018-08-30T10:39:22.778Z,1008.27
2018-08-30T10:40:22.756Z,1008.27
2018-08-30T10:41:22.753Z,1008.31
2018-08-30T10:42:22.732Z,1008.40
2018-08-30T10:43:22.728Z,1008.35
2018-08-30T10:44:22.749Z,1008.39
2018-08-30T10:45:22.704Z,1008.42
2018-08-30T10:46:22.691Z,1008.54
2018-08-30T10:47:22.679Z,1008.56
2018-08-30T10:48:22.669Z,1008.59
2018-08-30T10:49:22.685Z,1008.60
2018-08-30T10:50:22.673Z,1008.62
2018-08-30T10:51:22.630Z,1008.60
2018-08-30T10:52:22.629Z,1008.60
2018-08-30T10:53:22.614Z,1008.60
2018-08-30T10:54:22.601Z,1008.58
2018-08-30T10:55:22.593Z,1008.69
2018-08-30T10:56:22.717Z,1008.56
2018-08-30T10:57:22.563Z,1008.67
2018-08-30T10:58:22.563Z,1008.60
2018-08-30T10:59:22.551Z,1008.60
2018-08-30T11:00:22.530Z,1008.62
2018-08-30T11:01:22.549Z,1008.65
2018-08-30T11:02:22.586Z,1008.38
2018-08-30T11:03:22.531Z,1008.46
2018-08-30T11:04:22.607Z,1008.39
2018-08-30T11:05:22.487Z,1008.35
2018-08-30T11:06:22.469Z,1008.27
2018-08-30T11:07:22.488Z,1008.32
2018-08-30T11:08:22.446Z,1008.29
2018-08-30T11:09:22.437Z,1008.33
2018-08-30T11:10:22.429Z,1008.43
2018-08-30T11:11:22.417Z,1008.30
2018-08-30T11:12:22.437Z,1008.31
2018-08-30T11:13:22.426Z,1008.29
2018-08-30T11:14:22.378Z,1008.30
2018-08-30T11:15:22.377Z,1008.29
2018-08-30T11:16:22.362Z,1008.28
2018-08-30T11:17:22.353Z,1008.30
2018-08-30T11:18:22.359Z,1008.28
2018-08-30T11:19:22.347Z,1008.26
2018-08-30T11:20:22.317Z,1008.25
2018-08-30T11:21:22.303Z,1008.20
2018-08-30T11:22:22.295Z,1008.26
2018-08-30T11:23:22.318Z,1008.23
2018-08-30T11:24:22.270Z,1008.23
2018-08-30T11:25:22.262Z,1008.24
2018-08-30T11:26:22.248Z,1008.24
2018-08-30T11:27:22.238Z,1008.27
2018-08-30T11:28:22.235Z,1008.25
2018-08-30T11:29:22.246Z,1008.27
2018-08-30T11:30:22.205Z,1008.25
2018-08-30T11:31:22.188Z,1008.26
2018-08-30T11:32:22.219Z,1008.29
2018-08-30T11:33:22.216Z,1008.28
2018-08-30T11:34:22.157Z,1008.34
2018-08-30T11:35:22.168Z,1008.35
2018-08-30T11:36:22.130Z,1008.35
2018-08-30T11:37:22.121Z,1008.34
2018-08-30T11:38:22.108Z,1008.48
2018-08-30T11:39:22.101Z,1008.57
2018-08-30T11:40:22.110Z,1008.71
2018-08-30T11:41:22.145Z,1008.77
2018-08-30T11:42:22.113Z,1008.74
2018-08-30T11:43:22.162Z,1008.78
2018-08-30T11:44:22.035Z,1008.69
2018-08-30T11:45:22.029Z,1008.74
2018-08-30T11:46:22.051Z,1008.80
2018-08-30T11:47:22.008Z,1008.73
2018-08-30T11:48:21.993Z,1008.73
2018-08-30T11:49:21.986Z,1008.71
2018-08-30T11:50:21.973Z,1008.55
2018-08-30T11:51:21.964Z,1008.47
2018-08-30T11:52:22.068Z,1008.46
2018-08-30T11:53:21.945Z,1008.39
2018-08-30T11:54:21.996Z,1008.44
2018-08-30T11:55:21.913Z,1008.38
2018-08-30T11:56:21.936Z,1008.47
2018-08-30T11:57:21.899Z,1008.46
2018-08-30T11:58:21.946Z,1008.39
2018-08-30T11:59:21.908Z,1008.37
2018-08-30T12:00:21.867Z,1008.47
2018-08-30T12:01:21.848Z,1008.42
2018-08-30T12:02:21.846Z,1008.41
2018-08-30T12:03:21.830Z,1008.43
2018-08-30T12:04:21.851Z,1008.49
2018-08-30T12:05:21.810Z,1008.47
2018-08-30T12:06:21.792Z,1008.48
2018-08-30T12:07:21.787Z,1008.53
2018-08-30T12:08:21.843Z,1008.54
2018-08-30T12:09:21.763Z,1008.56
2018-08-30T12:10:21.808Z,1008.51
2018-08-30T12:11:21.898Z,1008.63
2018-08-30T12:12:21.721Z,1008.58
2018-08-30T12:13:21.741Z,1008.56
2018-08-30T12:14:21.699Z,1008.59
2018-08-30T12:15:21.697Z,1008.61
2018-08-30T12:16:21.698Z,1008.55
2018-08-30T12:17:21.675Z,1008.56
2018-08-30T12:18:21.654Z,1008.57
2018-08-30T12:19:21.648Z,1008.59
2018-08-30T12:20:21.722Z,1008.57
2018-08-30T12:21:21.627Z,1008.58
2018-08-30T12:22:21.613Z,1008.60
2018-08-30T12:23:21.607Z,1008.64
2018-08-30T12:24:21.586Z,1008.63
2018-08-30T12:25:21.584Z,1008.63
2018-08-30T12:26:21.586Z,1008.74
2018-08-30T12:27:21.560Z,1008.65
2018-08-30T12:28:21.562Z,1008.59
2018-08-30T12:29:21.552Z,1008.62
2018-08-30T12:30:21.572Z,1008.61
2018-08-30T12:31:21.532Z,1008.67
2018-08-30T12:32:21.500Z,1008.60
2018-08-30T12:33:21.561Z,1008.66
2018-08-30T12:34:21.555Z,1008.66
2018-08-30T12:35:21.583Z,1008.64
2018-08-30T12:36:21.504Z,1008.57
2018-08-30T12:37:21.464Z,1008.66
2018-08-30T12:38:21.445Z,1008.58